Erin, Alabama
Current Conditions -  °F | °C
As of 6:53 AM on Friday 31 Oct 2014 (Local Time) from KANB Reporting Station
Clear Clear  
Wind Chill: 40°   Ceiling: Unl
Heat Index: 40°   Visibility: 10mi
Dew Point: 38°   Wind: 0mph
Humidity: 93%   Direction: NA
Pressure: 29.99"   Gusts: NA
Location:  33.3533°N, 85.7343°W
Report Text: KANB 311153Z AUTO 00000KT 10SM CLR 04/03 A2999 RMK AO2 SLP160 T00440033 10061 20033 51002
Loading
Personal Weather Stations






























Interactive Weather Map
Tropical Storm Tracking
New forecast layout! Learn more

10-Day Weather Forecast

Advertisements
Track Severe Weather on mobile